Terminal Aerodrome Forecast
Issued by NWS Blacksburg, VA

Home | Current Version | Previous Version | Text Only | Print | Product List | Glossary On
Versions: 1 2 3 4 5 6 7 8 9 10 11 12 13 14 15 16 17 18
000
FTUS41 KRNK 272107 AAB
TAFROA
TAF AMD
KROA 272107Z 2721/2818 18004KT P6SM VCTS SCT060CB BKN080
      TEMPO 2721/2722 2SM +TSRA FEW008 BKN030CB
     FM280100 28005KT P6SM SCT070
     FM281300 00000KT P6SM BKN070=

USA.gov is the U.S. government's official web portal to all federal, state and local government web resources and services.